עמוד ראשי
METAR-TAF:

METAR-TAF

שדות תעופה :

Barahona, הרפובליקה הדומיניקאנית

קו רוחב: 18-12N, קו אורך: 071-06W, גובה: 3מטר

תצפית מזג אוויר נוכחית

הדו"ח נערך לפני 1 שעות ו 48דקות, בשעה 00:00 UTC
רוח 8קשר מכיוון דרום-מזרח
טמפרטורת 28 צלסיוס
לחות 84%
לחץ 1014 hPa
ראות 10 קילומטר או יותר
מעט עננים בגובה 1800רגל , קומולונימבוס.
מעט עננים בגובה 2000רגל
עננים פזורים בגובה 30000רגל

METAR: MDBH 130000Z 13008KT 9999 FEW018CB FEW020 SCT300 28/25 Q1014 CB/N

זמן: 21:48 (01:48 UTC)

תחזית

הדו"ח נערך לפני 3 שעות ו 48דקות, בשעה 22:00 UTC
תחזית בתוקף מ 13 ב 00 UTC עד 14 ב 00 UTC
רוח 8קשר מכיוון דרום-מזרח
ראות 10 קילומטר או יותר
מעט עננים בגובה 2000רגל , קומולונימבוס.
עננים פזורים בגובה 2200רגל
יעשה מ
13 ב 05 UTC עד 13 ב 07 UTC
רוח קשר מכיוון צפון

TAF: MDBH 122200Z 1300/1400 13008KT 9999 FEW020CB SCT022 BECMG 1305/1307 00000KT

תצפיות ותחזיות מזג אוויר לגבי יותר מ- 4,000 שדות תעופה ברחבי העולם. דוחות METAR ו- TAF.

התחנות הזמינות מסומנות בנקודות צהובות ואדומות על גבי המפה.

העבר את העכבר לנקודה הצבעונית על מנת לראות את שם התחנה.

לאחר מכן, לחץ כדי לראות את תוכן ואת תחזיות מזג האוויר.

כדי לשנות את המפה: לחץ על הכפתורים הירוקים עם הפלוס השחור כדי להתקרב; על הכפתור הירוק עם המקף כדי להתרחק; או בחיצים הירוקים למפות סמוכות.


METAR-TAF: